Time;durP1;ratioP1;P1;durP2;ratioP2;P2;SDS_P1;SDS_P2;PMS_P1;PMS_P2;Temp;Humidity;BMP_temperature;BMP_pressure;BME280_temperature;BME280_humidity;BME280_pressure;Samples;Min_cycle;Max_cycle;Signal;HPM_P1;HPM_P2
2023/12/15 00:01:41;;;;;;;24.45;11.82;;;;;;;1.56;62.98;102503.84;4905509;28;20111;-77
2023/12/15 00:04:07;;;;;;;24.02;10.88;;;;;;;1.55;62.88;102507.28;4929317;28;20142;-77
2023/12/15 00:06:32;;;;;;;24.75;10.23;;;;;;;1.32;63.39;102511.81;4931075;28;20503;-76
2023/12/15 00:08:58;;;;;;;26.50;9.88;;;;;;;1.44;63.32;102512.16;4941430;28;20388;-77
2023/12/15 00:11:23;;;;;;;24.00;10.52;;;;;;;1.19;63.81;102510.63;4925089;28;20062;-77
2023/12/15 00:13:48;;;;;;;20.92;10.00;;;;;;;1.56;62.79;102506.41;4939085;28;20130;-77
2023/12/15 00:16:14;;;;;;;27.83;10.90;;;;;;;1.36;63.71;102513.63;4936540;28;20066;-77
2023/12/15 00:18:39;;;;;;;29.63;11.40;;;;;;;1.31;63.67;102507.50;4935550;28;20039;-76
2023/12/15 00:21:05;;;;;;;29.67;9.93;;;;;;;1.56;62.94;102510.72;4945017;28;20070;-75
2023/12/15 00:23:30;;;;;;;26.23;10.63;;;;;;;1.77;62.46;102518.06;4931755;28;20046;-77
2023/12/15 00:25:56;;;;;;;33.35;11.70;;;;;;;1.77;62.31;102516.34;4937771;28;20028;-77
2023/12/15 00:28:21;;;;;;;25.25;11.27;;;;;;;1.60;63.40;102509.97;4934718;28;20126;-77
2023/12/15 00:30:47;;;;;;;23.70;11.73;;;;;;;1.52;63.35;102510.63;4942210;28;20520;-77
2023/12/15 00:33:12;;;;;;;23.83;10.75;;;;;;;1.49;64.24;102512.28;4938905;28;20522;-77
2023/12/15 00:35:38;;;;;;;28.92;11.25;;;;;;;1.49;64.53;102514.84;4926637;28;20058;-77
2023/12/15 00:38:03;;;;;;;33.03;11.38;;;;;;;1.16;65.30;102514.84;4924739;28;20185;-76
2023/12/15 00:40:29;;;;;;;27.15;11.63;;;;;;;1.69;63.91;102511.03;4936417;28;20039;-77
2023/12/15 00:42:54;;;;;;;25.15;11.77;;;;;;;1.21;64.88;102515.81;4930918;28;20047;-77
2023/12/15 00:45:20;;;;;;;27.00;10.95;;;;;;;1.79;63.97;102506.94;4937023;28;20036;-76
2023/12/15 00:47:45;;;;;;;28.52;11.85;;;;;;;0.81;66.15;102509.63;4939085;28;20069;-77
2023/12/15 00:50:12;;;;;;;22.52;10.00;;;;;;;1.45;65.47;102513.88;4935570;28;20209;-75
2023/12/15 00:52:37;;;;;;;28.05;11.55;;;;;;;1.50;65.14;102514.00;4933957;28;20039;-77
2023/12/15 00:55:03;;;;;;;34.17;12.02;;;;;;;1.52;65.12;102517.47;4937557;28;20030;-77
2023/12/15 00:57:29;;;;;;;26.88;10.77;;;;;;;1.44;65.45;102514.75;4928670;28;20039;-77
2023/12/15 00:59:55;;;;;;;26.75;11.23;;;;;;;1.48;65.63;102514.00;4937822;28;20336;-77
2023/12/15 01:02:20;;;;;;;23.38;10.93;;;;;;;1.52;64.46;102523.50;4935660;28;20050;-77
2023/12/15 01:04:46;;;;;;;26.80;11.25;;;;;;;1.75;64.43;102520.59;4929593;28;20231;-77
2023/12/15 01:07:11;;;;;;;21.88;10.32;;;;;;;1.90;64.04;102533.84;4934049;28;20066;-77
2023/12/15 01:09:37;;;;;;;19.20;9.70;;;;;;;2.01;63.78;102533.22;4915335;28;20038;-77
2023/12/15 01:12:03;;;;;;;26.95;11.15;;;;;;;1.81;64.08;102535.34;4931968;28;20693;-77
2023/12/15 01:14:29;;;;;;;28.13;11.05;;;;;;;1.81;64.12;102531.06;4937805;28;20044;-76
2023/12/15 01:16:54;;;;;;;19.55;10.18;;;;;;;2.12;63.65;102544.66;4928852;28;20043;-76
2023/12/15 01:19:20;;;;;;;24.90;11.20;;;;;;;2.21;63.05;102546.56;4932606;28;20101;-76
2023/12/15 01:21:45;;;;;;;22.88;10.90;;;;;;;2.17;63.44;102548.19;4923558;28;20031;-77
2023/12/15 01:24:11;;;;;;;21.98;10.07;;;;;;;1.52;65.43;102554.44;4932571;28;20545;-76
2023/12/15 01:26:37;;;;;;;29.52;10.35;;;;;;;1.56;65.65;102551.94;4913758;28;20047;-76
2023/12/15 01:29:03;;;;;;;24.85;10.05;;;;;;;1.72;65.69;102556.63;4933169;28;20087;-77
2023/12/15 01:31:28;;;;;;;25.20;11.20;;;;;;;1.72;65.35;102559.22;4921509;28;20043;-77
2023/12/15 01:33:53;;;;;;;21.02;11.30;;;;;;;2.15;63.91;102567.91;4936937;28;20046;-76
2023/12/15 01:36:19;;;;;;;25.27;10.48;;;;;;;1.87;64.70;102569.88;4934294;28;20490;-77
2023/12/15 01:38:45;;;;;;;27.33;11.15;;;;;;;1.77;65.54;102567.91;4936881;28;20056;-77
2023/12/15 01:41:10;;;;;;;27.58;11.82;;;;;;;2.04;64.51;102567.72;4936723;28;20822;-77
2023/12/15 01:43:36;;;;;;;31.48;13.20;;;;;;;1.63;65.80;102577.03;4915561;28;20081;-77
2023/12/15 01:46:02;;;;;;;25.38;9.93;;;;;;;1.51;65.98;102578.47;4918304;28;20035;-77
2023/12/15 01:48:29;;;;;;;27.35;10.80;;;;;;;1.81;65.12;102576.59;4934325;28;20061;-76
2023/12/15 01:50:55;;;;;;;23.90;11.05;;;;;;;1.83;64.79;102570.66;4940162;28;20035;-76
2023/12/15 01:53:20;;;;;;;26.58;11.55;;;;;;;1.77;65.78;102575.66;4921072;28;20063;-76
2023/12/15 01:55:46;;;;;;;24.92;11.25;;;;;;;1.41;66.42;102585.94;4934110;28;20178;-77
2023/12/15 01:58:12;;;;;;;21.63;10.05;;;;;;;1.69;66.29;102582.34;4940497;28;20055;-75
2023/12/15 02:00:37;;;;;;;19.23;9.70;;;;;;;1.66;66.26;102577.09;4932517;28;20044;-77
2023/12/15 02:03:03;;;;;;;23.50;10.75;;;;;;;1.98;64.78;102577.88;4933302;28;20052;-77
2023/12/15 02:05:29;;;;;;;23.13;10.52;;;;;;;2.14;64.61;102582.53;4933747;28;20038;-77
2023/12/15 02:07:54;;;;;;;22.05;10.50;;;;;;;1.49;66.11;102582.72;4928287;28;20065;-76
2023/12/15 02:10:20;;;;;;;26.77;9.82;;;;;;;1.93;65.02;102588.09;5007777;28;20560;-76
2023/12/15 02:12:45;;;;;;;24.40;11.43;;;;;;;2.09;64.46;102588.44;5004797;28;20047;-77
2023/12/15 02:15:11;;;;;;;23.35;11.25;;;;;;;2.27;64.15;102586.28;4945330;28;20055;-77
2023/12/15 02:17:37;;;;;;;23.77;11.73;;;;;;;2.01;65.12;102595.13;4933595;28;20066;-77
2023/12/15 02:20:03;;;;;;;25.05;11.80;;;;;;;1.81;65.53;102602.38;4942962;28;20154;-77
2023/12/15 02:22:29;;;;;;;26.55;11.05;;;;;;;2.10;65.06;102600.50;4930506;28;20041;-77
2023/12/15 02:24:54;;;;;;;30.23;12.75;;;;;;;2.08;64.50;102602.16;4938848;28;20490;-76
2023/12/15 02:27:20;;;;;;;27.17;12.18;;;;;;;2.02;64.63;102602.00;4927868;28;20131;-77
2023/12/15 02:29:45;;;;;;;26.00;11.07;;;;;;;2.09;64.51;102603.94;4921610;28;20138;-74
2023/12/15 02:32:11;;;;;;;28.85;13.73;;;;;;;2.27;64.20;102599.16;4940317;28;20039;-74
2023/12/15 02:34:36;;;;;;;36.40;13.25;;;;;;;2.08;65.09;102603.03;4911956;28;20044;-74
2023/12/15 02:37:01;;;;;;;29.63;11.65;;;;;;;2.21;64.57;102601.59;4922008;28;20059;-75
2023/12/15 02:39:27;;;;;;;30.73;13.10;;;;;;;2.26;64.55;102600.00;4909038;28;20048;-73
2023/12/15 02:41:52;;;;;;;33.67;13.52;;;;;;;2.51;63.67;102603.09;4917201;28;20290;-73
2023/12/15 02:44:18;;;;;;;33.20;13.25;;;;;;;2.11;65.24;102599.69;4939426;28;20054;-74
2023/12/15 02:46:43;;;;;;;36.83;14.57;;;;;;;2.41;64.30;102590.88;4934881;28;20485;-76
2023/12/15 02:49:09;;;;;;;35.13;14.60;;;;;;;2.43;64.13;102602.97;4932341;28;20441;-76
2023/12/15 02:51:34;;;;;;;32.53;14.23;;;;;;;2.38;64.60;102601.09;4930712;28;20115;-76
2023/12/15 02:54:01;;;;;;;34.03;15.20;;;;;;;2.43;64.56;102599.50;4923845;28;20122;-74
2023/12/15 02:56:26;;;;;;;29.92;12.38;;;;;;;2.63;63.50;102605.09;4930541;28;20449;-75
2023/12/15 02:58:52;;;;;;;35.17;13.63;;;;;;;2.26;64.91;102609.44;4930251;28;20055;-76
2023/12/15 03:01:18;;;;;;;35.55;14.38;;;;;;;2.33;64.92;102612.22;4933038;28;20105;-76
2023/12/15 03:03:43;;;;;;;35.58;13.82;;;;;;;1.69;67.09;102614.16;4917628;28;20078;-75
2023/12/15 03:06:09;;;;;;;39.20;14.98;;;;;;;2.15;65.18;102619.53;4942299;28;20062;-75
2023/12/15 03:08:34;;;;;;;34.15;15.43;;;;;;;2.24;65.56;102604.28;4933951;28;20100;-75
2023/12/15 03:11:00;;;;;;;37.45;16.05;;;;;;;2.32;65.13;102607.00;4950066;28;20039;-75
2023/12/15 03:13:28;;;;;;;37.47;15.05;;;;;;;2.43;65.02;102605.53;4934023;28;20059;-75
2023/12/15 03:15:53;;;;;;;39.55;14.95;;;;;;;2.56;64.32;102602.38;4917120;28;20042;-75
2023/12/15 03:18:19;;;;;;;35.70;15.30;;;;;;;1.99;66.00;102605.41;4930103;28;20051;-76
2023/12/15 03:20:44;;;;;;;34.83;13.73;;;;;;;2.29;65.43;102615.56;4935926;28;20141;-75
2023/12/15 03:23:10;;;;;;;40.33;15.18;;;;;;;2.56;64.53;102614.44;4934069;28;20054;-76
2023/12/15 03:25:35;;;;;;;42.95;16.05;;;;;;;2.55;64.32;102615.25;4930993;28;20050;-76
2023/12/15 03:28:01;;;;;;;37.53;14.63;;;;;;;2.69;64.17;102624.19;4937665;28;20043;-75
2023/12/15 03:30:26;;;;;;;39.95;16.48;;;;;;;2.77;63.85;102614.84;4938307;28;20038;-76
2023/12/15 03:32:52;;;;;;;49.00;17.10;;;;;;;2.57;64.00;102618.72;4931660;28;20051;-76
2023/12/15 03:35:18;;;;;;;37.65;14.73;;;;;;;2.56;64.49;102609.25;4927798;28;20039;-75
2023/12/15 03:37:43;;;;;;;39.22;14.88;;;;;;;2.74;63.92;102621.69;4943774;28;20035;-75
2023/12/15 03:40:09;;;;;;;46.70;16.05;;;;;;;2.69;64.34;102631.91;4922368;28;20082;-76
2023/12/15 03:42:35;;;;;;;37.33;14.73;;;;;;;2.80;64.50;102633.84;4914775;28;20433;-76
2023/12/15 03:45:01;;;;;;;42.45;16.20;;;;;;;2.64;64.69;102637.81;4933230;28;20057;-75
2023/12/15 03:47:26;;;;;;;34.03;15.32;;;;;;;2.77;64.65;102635.50;4935144;28;20039;-76
2023/12/15 03:49:52;;;;;;;47.80;16.63;;;;;;;2.82;64.67;102645.06;4931719;28;20100;-75
2023/12/15 03:52:18;;;;;;;43.22;16.15;;;;;;;2.50;65.89;102638.38;4935020;28;20031;-77
2023/12/15 03:54:44;;;;;;;43.03;15.43;;;;;;;2.52;65.74;102641.88;4933439;28;20051;-75
2023/12/15 03:57:09;;;;;;;38.25;15.57;;;;;;;2.30;67.00;102653.41;4932506;28;20138;-75
2023/12/15 03:59:39;;;;;;;44.88;14.95;;;;;;;2.71;65.75;102648.31;4926407;28;20143;-75
2023/12/15 04:02:05;;;;;;;45.28;16.30;;;;;;;2.93;65.02;102649.59;4930405;28;20043;-75
2023/12/15 04:04:32;;;;;;;40.83;14.07;;;;;;;2.77;65.57;102658.75;4929737;28;20069;-75
2023/12/15 04:06:58;;;;;;;38.65;15.55;;;;;;;2.60;66.15;102652.38;4933897;28;20032;-75
2023/12/15 04:09:23;;;;;;;40.63;17.50;;;;;;;2.98;65.00;102654.91;4929968;28;20062;-75
2023/12/15 04:11:48;;;;;;;39.00;14.35;;;;;;;2.79;65.45;102648.47;4950230;28;20232;-76
2023/12/15 04:14:15;;;;;;;34.72;15.23;;;;;;;3.13;64.43;102662.06;4936090;28;20043;-75
2023/12/15 04:16:41;;;;;;;53.85;16.13;;;;;;;2.96;64.96;102661.75;4929145;28;20035;-75
2023/12/15 04:19:06;;;;;;;38.20;13.00;;;;;;;2.88;65.71;102660.69;4934566;28;20422;-76
2023/12/15 04:21:32;;;;;;;32.05;13.63;;;;;;;2.92;64.97;102662.50;4924711;28;20644;-75
2023/12/15 04:23:58;;;;;;;43.42;14.68;;;;;;;3.15;65.03;102666.41;4936382;28;20483;-75
2023/12/15 04:26:23;;;;;;;39.85;14.77;;;;;;;2.76;65.41;102658.75;4919904;28;20276;-76
2023/12/15 04:28:49;;;;;;;46.28;14.60;;;;;;;2.62;66.38;102663.59;4941855;28;20054;-76
2023/12/15 04:31:14;;;;;;;43.72;14.18;;;;;;;2.88;65.60;102665.88;4921488;28;20049;-76
2023/12/15 04:33:40;;;;;;;53.90;15.27;;;;;;;3.28;64.41;102671.84;4929753;28;20846;-76
2023/12/15 04:36:08;;;;;;;41.55;13.98;;;;;;;3.22;64.75;102674.28;4931770;28;20038;-75
2023/12/15 04:38:33;;;;;;;44.33;13.25;;;;;;;3.04;65.51;102678.25;4929775;28;20058;-75
2023/12/15 04:40:59;;;;;;;48.35;13.43;;;;;;;3.21;64.82;102680.31;4941966;28;20254;-76
2023/12/15 04:43:24;;;;;;;34.88;13.73;;;;;;;2.98;64.92;102685.91;4930768;28;20116;-76
2023/12/15 04:45:50;;;;;;;34.55;13.85;;;;;;;2.94;65.75;102676.34;4931124;28;20031;-77
2023/12/15 04:48:15;;;;;;;42.25;14.70;;;;;;;3.04;65.51;102678.25;4921705;28;20133;-76
2023/12/15 04:50:41;;;;;;;38.20;13.10;;;;;;;3.30;64.27;102675.34;4928185;28;20038;-75
2023/12/15 04:53:06;;;;;;;45.72;13.93;;;;;;;3.32;63.93;102673.69;4932193;28;20051;-76
2023/12/15 04:55:33;;;;;;;34.45;12.27;;;;;;;2.92;64.96;102686.63;4918088;28;20541;-76
2023/12/15 04:57:58;;;;;;;42.97;13.52;;;;;;;3.01;65.06;102695.41;4929558;28;20051;-75
2023/12/15 05:00:24;;;;;;;31.83;12.88;;;;;;;3.21;64.22;102693.25;4930095;28;20047;-75
2023/12/15 05:02:49;;;;;;;33.55;11.93;;;;;;;2.80;65.27;102699.28;4930006;28;20047;-76
2023/12/15 05:05:15;;;;;;;29.65;12.70;;;;;;;2.80;64.96;102695.81;4932537;28;20048;-77
2023/12/15 05:07:41;;;;;;;30.45;11.68;;;;;;;2.45;66.31;102695.91;4927611;28;20134;-75
2023/12/15 05:10:07;;;;;;;35.70;12.63;;;;;;;2.74;64.85;102694.84;4927599;28;20058;-76
2023/12/15 05:12:34;;;;;;;38.67;11.35;;;;;;;2.70;65.36;102705.94;4939209;28;20054;-76
2023/12/15 05:15:01;;;;;;;37.85;12.95;;;;;;;2.71;64.82;102707.72;4937470;28;20032;-76
2023/12/15 05:17:26;;;;;;;43.47;12.95;;;;;;;2.61;65.65;102716.06;4908405;28;20134;-75
2023/12/15 05:19:52;;;;;;;42.30;13.27;;;;;;;2.76;64.65;102720.72;4933491;28;20139;-76
2023/12/15 05:22:17;;;;;;;33.40;12.20;;;;;;;2.52;65.88;102719.31;4934779;28;20232;-76
2023/12/15 05:24:43;;;;;;;27.48;11.65;;;;;;;2.72;64.85;102719.75;4919550;28;20573;-76
2023/12/15 05:27:08;;;;;;;47.45;14.05;;;;;;;2.87;64.81;102721.81;4921392;28;20433;-76
2023/12/15 05:29:34;;;;;;;40.45;13.43;;;;;;;2.79;64.67;102733.69;4932273;28;20426;-76
2023/12/15 05:32:00;;;;;;;36.88;12.68;;;;;;;2.95;64.69;102737.47;4937037;28;20096;-75
2023/12/15 05:34:26;;;;;;;34.33;13.13;;;;;;;2.97;64.13;102749.56;4933621;28;20043;-75
2023/12/15 05:36:52;;;;;;;30.98;11.82;;;;;;;3.10;63.66;102758.47;4933042;28;20071;-76
2023/12/15 05:39:18;;;;;;;40.38;11.65;;;;;;;3.17;63.77;102757.75;4916982;28;20202;-76
2023/12/15 05:41:43;;;;;;;26.50;11.82;;;;;;;3.23;63.22;102756.16;4935338;28;20430;-74
2023/12/15 05:44:09;;;;;;;34.10;12.95;;;;;;;3.21;63.17;102752.66;4922405;28;20039;-76
2023/12/15 05:46:39;;;;;;;37.05;12.43;;;;;;;3.11;63.32;102757.66;4932575;28;20396;-76
2023/12/15 05:49:05;;;;;;;36.50;11.85;;;;;;;3.13;63.17;102755.94;4915275;28;20036;-76
2023/12/15 05:51:30;;;;;;;46.75;13.63;;;;;;;2.83;64.46;102750.13;4936268;28;20104;-76
2023/12/15 05:53:56;;;;;;;40.85;12.07;;;;;;;3.06;63.79;102761.81;4932734;28;20840;-76
2023/12/15 05:56:21;;;;;;;40.85;14.27;;;;;;;3.07;63.74;102758.41;4924483;28;20624;-75
2023/12/15 05:58:48;;;;;;;29.65;12.43;;;;;;;2.75;64.87;102762.84;4929906;28;20050;-76
2023/12/15 06:01:14;;;;;;;37.95;13.18;;;;;;;2.76;64.91;102760.31;4931470;28;20226;-76
2023/12/15 06:03:39;;;;;;;35.50;12.00;;;;;;;3.07;64.25;102758.41;4933073;28;20133;-77
2023/12/15 06:06:05;;;;;;;31.60;11.13;;;;;;;2.54;65.45;102758.06;4940313;28;20047;-77
2023/12/15 06:08:31;;;;;;;31.80;11.02;;;;;;;2.91;64.26;102744.31;4933019;28;20055;-76
2023/12/15 06:10:56;;;;;;;32.35;11.77;;;;;;;2.86;64.29;102751.06;4917835;28;20031;-76
2023/12/15 06:13:21;;;;;;;29.10;10.50;;;;;;;2.91;63.83;102746.00;4940937;28;20073;-76
2023/12/15 06:15:47;;;;;;;23.08;10.18;;;;;;;2.42;65.71;102761.25;4931580;28;20102;-75
2023/12/15 06:18:12;;;;;;;30.17;12.13;;;;;;;2.83;64.38;102768.22;4924356;28;20055;-77
2023/12/15 06:20:38;;;;;;;30.33;11.93;;;;;;;2.61;65.72;102775.44;4919514;28;20035;-76
2023/12/15 06:23:04;;;;;;;29.90;10.82;;;;;;;2.92;64.85;102776.16;4932855;28;20115;-75
2023/12/15 06:25:29;;;;;;;33.30;10.48;;;;;;;2.81;64.69;102785.38;4938346;28;20475;-77
2023/12/15 06:27:55;;;;;;;28.73;10.52;;;;;;;3.01;64.36;102780.66;4933900;28;20039;-76
2023/12/15 06:30:20;;;;;;;30.65;9.93;;;;;;;2.98;64.39;102784.06;4939277;28;20130;-76
2023/12/15 06:32:46;;;;;;;27.95;10.63;;;;;;;3.08;64.16;102780.81;4935843;28;20504;-75
2023/12/15 06:35:11;;;;;;;33.90;11.13;;;;;;;3.24;63.77;102796.66;4940276;28;20039;-76
2023/12/15 06:37:36;;;;;;;28.05;10.05;;;;;;;3.19;64.25;102794.84;4934123;28;20534;-76
2023/12/15 06:40:03;;;;;;;35.67;11.30;;;;;;;3.23;64.27;102794.94;4935665;28;20036;-76
2023/12/15 06:42:29;;;;;;;29.08;10.20;;;;;;;3.18;64.42;102807.75;4935393;28;20040;-76
2023/12/15 06:44:55;;;;;;;32.35;11.07;;;;;;;3.16;64.30;102807.72;4930020;28;20039;-75
2023/12/15 06:47:21;;;;;;;26.80;9.85;;;;;;;2.87;65.31;102813.94;4942757;28;20494;-76
2023/12/15 06:49:46;;;;;;;37.35;10.40;;;;;;;3.26;64.56;102807.91;4924462;28;20479;-76
2023/12/15 06:52:12;;;;;;;28.90;11.15;;;;;;;3.19;64.81;102812.06;4926760;28;20549;-75
2023/12/15 06:54:39;;;;;;;26.63;8.25;;;;;;;3.43;64.06;102811.75;4913423;28;20520;-76
2023/12/15 06:57:06;;;;;;;25.02;9.50;;;;;;;3.43;63.68;102821.22;4912079;28;20035;-77
2023/12/15 06:59:31;;;;;;;23.38;9.05;;;;;;;3.13;64.42;102823.13;4926971;28;20051;-75
2023/12/15 07:01:57;;;;;;;28.35;9.50;;;;;;;3.47;63.37;102823.91;4911101;28;20502;-75
2023/12/15 07:04:22;;;;;;;31.58;10.73;;;;;;;3.28;64.42;102827.78;4989682;28;20103;-76
2023/12/15 07:06:48;;;;;;;25.27;9.63;;;;;;;3.38;64.00;102834.94;4919303;28;20036;-76
2023/12/15 07:09:13;;;;;;;32.35;9.85;;;;;;;3.47;63.42;102839.44;4909462;28;20043;-76
2023/12/15 07:11:39;;;;;;;37.47;10.18;;;;;;;3.46;63.16;102835.06;4900509;28;20076;-76
2023/12/15 07:14:05;;;;;;;29.98;11.77;;;;;;;2.82;65.48;102836.19;4952500;28;20549;-76
2023/12/15 07:16:30;;;;;;;26.52;10.38;;;;;;;3.11;64.05;102835.16;4907372;28;20159;-76
2023/12/15 07:18:56;;;;;;;27.90;9.73;;;;;;;3.12;63.65;102831.72;4909311;28;20775;-76
2023/12/15 07:21:21;;;;;;;32.25;10.73;;;;;;;3.14;63.00;102839.53;4919845;28;20039;-76
2023/12/15 07:23:47;;;;;;;28.55;10.00;;;;;;;3.08;63.07;102844.53;4915340;28;20032;-75
2023/12/15 07:26:13;;;;;;;31.17;9.32;;;;;;;2.87;63.63;102850.97;4938388;28;20043;-77
2023/12/15 07:28:39;;;;;;;30.92;9.95;;;;;;;2.68;64.74;102852.22;4992553;28;20059;-76
2023/12/15 07:31:05;;;;;;;23.63;9.35;;;;;;;2.87;64.10;102856.13;4917415;28;20067;-76
2023/12/15 07:33:30;;;;;;;27.35;10.48;;;;;;;2.32;66.21;102845.28;4921668;28;20261;-76
2023/12/15 07:35:56;;;;;;;27.20;10.50;;;;;;;2.47;66.13;102855.13;4914969;28;20041;-75
2023/12/15 07:38:22;;;;;;;32.58;10.95;;;;;;;2.60;65.74;102866.66;4930592;28;20039;-76
2023/12/15 07:40:47;;;;;;;26.40;10.00;;;;;;;2.79;64.34;102872.28;4932160;28;20120;-75
2023/12/15 07:43:13;;;;;;;28.58;11.80;;;;;;;2.83;64.19;102881.84;4934929;28;20092;-77
2023/12/15 07:45:38;;;;;;;25.23;9.65;;;;;;;2.57;65.02;102879.47;4926793;28;20035;-76
2023/12/15 07:48:04;;;;;;;29.63;10.02;;;;;;;2.77;64.40;102879.97;4934730;28;20146;-76
2023/12/15 07:50:29;;;;;;;31.38;10.00;;;;;;;2.81;64.13;102891.25;4936454;28;20039;-75
2023/12/15 07:52:55;;;;;;;35.83;10.70;;;;;;;2.88;63.65;102893.16;4919826;28;20063;-76
2023/12/15 07:55:22;;;;;;;29.83;9.88;;;;;;;2.53;64.89;102898.28;4931155;28;20062;-75
2023/12/15 07:57:47;;;;;;;22.90;8.95;;;;;;;2.73;64.71;102904.88;4934551;28;20094;-75
2023/12/15 08:00:13;;;;;;;26.60;9.43;;;;;;;2.81;64.37;102911.94;4922668;28;20058;-77
2023/12/15 08:02:43;;;;;;;26.05;8.98;;;;;;;2.79;65.29;102911.00;4935187;28;20035;-77
2023/12/15 08:05:09;;;;;;;23.90;9.05;;;;;;;2.91;64.47;102912.19;4924444;28;20464;-77
2023/12/15 08:07:34;;;;;;;36.88;10.35;;;;;;;2.41;65.54;102921.22;4934535;28;20035;-77
2023/12/15 08:10:00;;;;;;;26.77;9.18;;;;;;;2.60;65.64;102923.47;4931225;28;20312;-78
2023/12/15 08:12:26;;;;;;;25.60;8.45;;;;;;;2.89;64.66;102925.88;4932844;28;20028;-76
2023/12/15 08:14:51;;;;;;;25.85;8.82;;;;;;;2.67;65.46;102937.41;4928813;28;20103;-79
2023/12/15 08:17:17;;;;;;;27.83;8.80;;;;;;;2.67;65.01;102935.69;4928362;28;20274;-76
2023/12/15 08:19:44;;;;;;;28.48;7.40;;;;;;;2.70;64.74;102946.09;4908266;28;20060;-76
2023/12/15 08:22:09;;;;;;;30.75;9.93;;;;;;;2.64;65.49;102951.06;4920066;28;20126;-77
2023/12/15 08:24:34;;;;;;;24.73;8.93;;;;;;;2.74;65.04;102941.88;4930886;28;20127;-77
2023/12/15 08:27:00;;;;;;;22.17;7.60;;;;;;;3.03;64.32;102944.34;4913692;28;20611;-77
2023/12/15 08:29:25;;;;;;;24.90;7.90;;;;;;;3.12;63.73;102940.25;4931045;28;20474;-77
2023/12/15 08:31:51;;;;;;;17.95;7.07;;;;;;;2.90;64.12;102961.22;4927363;28;20067;-77
2023/12/15 08:34:16;;;;;;;29.48;7.85;;;;;;;3.06;63.99;102955.59;4916232;28;20057;-74
2023/12/15 08:36:43;;;;;;;27.20;7.65;;;;;;;3.09;64.09;102958.28;4913856;28;20036;-76
2023/12/15 08:39:09;;;;;;;20.98;7.15;;;;;;;2.92;64.59;102970.75;4905284;28;20061;-74
2023/12/15 08:41:35;;;;;;;34.33;9.05;;;;;;;3.00;64.62;102986.44;4916407;28;20043;-76
2023/12/15 08:44:00;;;;;;;29.13;6.97;;;;;;;2.70;66.05;102997.72;4905085;28;20280;-75
2023/12/15 08:46:25;;;;;;;34.35;8.27;;;;;;;2.85;65.63;102993.81;4915227;28;20040;-74
2023/12/15 08:48:51;;;;;;;23.52;6.55;;;;;;;3.21;64.94;102985.25;4910801;28;20043;-76
2023/12/15 08:51:17;;;;;;;20.52;6.38;;;;;;;3.10;64.81;102996.19;4920744;28;20031;-74
2023/12/15 08:53:43;;;;;;;27.70;6.30;;;;;;;3.68;63.79;102998.47;4916341;28;20130;-75
2023/12/15 08:56:09;;;;;;;25.67;7.13;;;;;;;3.64;63.55;103002.69;4935875;28;20106;-75
2023/12/15 08:58:35;;;;;;;26.30;7.50;;;;;;;3.99;62.73;103011.22;4929839;28;20039;-75
2023/12/15 09:01:01;;;;;;;30.17;7.28;;;;;;;3.81;62.84;103016.00;4915787;28;20061;-76
2023/12/15 09:03:27;;;;;;;32.00;6.53;;;;;;;3.89;62.48;103029.97;4928986;28;20511;-75
2023/12/15 09:05:53;;;;;;;23.63;5.03;;;;;;;3.87;63.11;103023.88;4926323;28;20105;-74
2023/12/15 09:08:20;;;;;;;22.55;5.45;;;;;;;4.16;62.01;103029.72;4936315;28;20428;-76
2023/12/15 09:10:50;;;;;;;26.08;6.70;;;;;;;3.98;62.04;103035.38;4949606;28;20042;-76
2023/12/15 09:13:16;;;;;;;21.38;6.15;;;;;;;3.96;62.52;103036.16;4950920;28;20047;-77
2023/12/15 09:15:42;;;;;;;22.95;5.85;;;;;;;4.02;62.08;103041.47;4946642;28;20027;-75
2023/12/15 09:18:08;;;;;;;20.10;5.43;;;;;;;3.58;63.37;103044.81;4951852;28;20098;-76
2023/12/15 09:20:34;;;;;;;22.50;5.50;;;;;;;3.81;62.64;103047.06;4968367;28;20045;-77
2023/12/15 09:22:59;;;;;;;18.45;4.75;;;;;;;3.87;63.08;103054.06;4948902;28;20043;-77
2023/12/15 09:25:25;;;;;;;19.60;5.03;;;;;;;4.06;62.04;103057.97;4936954;28;20138;-74
2023/12/15 09:27:50;;;;;;;25.95;4.53;;;;;;;4.30;61.75;103068.84;4950477;28;20054;-75
2023/12/15 09:30:16;;;;;;;23.13;4.22;;;;;;;3.99;62.47;103073.34;4939417;28;20024;-75
2023/12/15 09:32:42;;;;;;;19.52;5.03;;;;;;;3.94;62.66;103079.22;4933927;28;20068;-74
2023/12/15 09:35:08;;;;;;;19.65;4.68;;;;;;;4.13;62.65;103076.22;4950980;28;20027;-76
2023/12/15 09:37:33;;;;;;;19.92;4.35;;;;;;;4.12;61.86;103083.94;4939333;28;20211;-74
2023/12/15 09:39:59;;;;;;;20.70;5.78;;;;;;;4.35;61.70;103082.75;4951687;28;20089;-74
2023/12/15 09:42:24;;;;;;;21.98;4.97;;;;;;;4.37;61.30;103078.47;4944009;28;20155;-76
2023/12/15 09:44:51;;;;;;;17.88;3.83;;;;;;;4.35;61.75;103077.56;4953108;28;20035;-74
2023/12/15 09:47:20;;;;;;;20.77;4.55;;;;;;;4.21;62.17;103076.41;4950405;28;20503;-75
2023/12/15 09:49:51;;;;;;;20.33;5.05;;;;;;;3.90;62.55;103078.31;4958353;28;20406;-73
2023/12/15 09:52:17;;;;;;;16.02;4.50;;;;;;;3.99;62.71;103088.88;4949393;28;20032;-75
2023/12/15 09:54:43;;;;;;;22.05;4.90;;;;;;;4.14;62.05;103082.28;4917763;28;20063;-76
2023/12/15 09:57:10;;;;;;;18.33;4.75;;;;;;;4.50;61.58;103078.72;4917524;28;20035;-74
2023/12/15 09:59:40;;;;;;;15.77;4.20;;;;;;;4.01;62.76;103083.72;4923583;28;20044;-76
2023/12/15 10:02:05;;;;;;;19.25;4.70;;;;;;;4.34;61.72;103085.28;4921405;28;20035;-74
2023/12/15 10:04:31;;;;;;;15.48;4.07;;;;;;;4.49;61.33;103090.81;4924873;28;20459;-75
2023/12/15 10:06:57;;;;;;;18.83;4.75;;;;;;;4.42;61.98;103099.28;4928937;28;20414;-73
2023/12/15 10:09:22;;;;;;;16.15;4.25;;;;;;;4.36;61.91;103089.69;4951801;28;20046;-76
2023/12/15 10:11:48;;;;;;;13.88;4.03;;;;;;;4.23;62.49;103090.28;4943861;28;20539;-75
2023/12/15 10:14:14;;;;;;;28.20;5.38;;;;;;;4.17;62.95;103091.00;4947437;28;20066;-76
2023/12/15 10:16:40;;;;;;;18.63;4.40;;;;;;;4.34;62.03;103091.38;4937042;28;20414;-75
2023/12/15 10:19:06;;;;;;;20.08;5.20;;;;;;;4.40;62.38;103091.47;4954317;28;21329;-76
2023/12/15 10:21:33;;;;;;;17.13;4.15;;;;;;;4.58;61.77;103084.94;4963226;28;20073;-74
2023/12/15 10:23:59;;;;;;;23.98;4.43;;;;;;;3.99;62.76;103088.00;4948469;28;20495;-74
2023/12/15 10:26:28;;;;;;;21.13;4.72;;;;;;;4.47;62.00;103091.63;4944748;28;20054;-76
2023/12/15 10:28:56;;;;;;;26.83;4.88;;;;;;;4.38;62.26;103092.28;4942016;28;20051;-75
2023/12/15 10:31:26;;;;;;;17.67;3.25;;;;;;;4.59;61.81;103100.53;4956123;28;20049;-76
2023/12/15 10:33:51;;;;;;;26.08;5.40;;;;;;;4.14;62.34;103103.88;4947849;28;20040;-76
2023/12/15 10:36:17;;;;;;;23.52;5.70;;;;;;;4.72;61.95;103104.25;4958471;28;20427;-76
2023/12/15 10:38:42;;;;;;;25.60;6.28;;;;;;;4.77;61.38;103109.53;4955791;28;20549;-75
2023/12/15 10:41:08;;;;;;;17.42;5.18;;;;;;;5.00;61.18;103110.00;4955836;28;20035;-76
2023/12/15 10:43:34;;;;;;;16.98;3.92;;;;;;;4.82;61.39;103116.53;4950359;28;20470;-76
2023/12/15 10:46:01;;;;;;;22.88;4.63;;;;;;;5.04;61.25;103112.69;4953940;28;20100;-76
2023/12/15 10:48:30;;;;;;;18.02;3.88;;;;;;;5.19;60.40;103106.91;4952742;28;20495;-76
2023/12/15 10:50:58;;;;;;;22.63;3.88;;;;;;;5.31;60.74;103120.94;4944167;28;20105;-76
2023/12/15 10:53:24;;;;;;;24.95;4.53;;;;;;;5.35;60.12;103118.44;4944121;28;20385;-75
2023/12/15 10:55:51;;;;;;;27.90;4.32;;;;;;;5.31;60.60;103124.41;4955034;28;20031;-74
2023/12/15 10:58:18;;;;;;;25.00;3.72;;;;;;;5.01;61.05;103124.69;4949211;28;20049;-75
2023/12/15 11:00:46;;;;;;;17.73;3.33;;;;;;;4.82;61.89;103126.91;4951312;28;20074;-75
2023/12/15 11:03:12;;;;;;;20.20;3.35;;;;;;;5.18;61.26;103119.84;4937987;28;20153;-76
2023/12/15 11:05:40;;;;;;;21.95;2.65;;;;;;;5.44;60.50;103107.34;4958263;28;20043;-76
2023/12/15 11:08:06;;;;;;;15.65;4.00;;;;;;;5.22;60.78;103112.16;4947376;28;20514;-76
2023/12/15 11:10:32;;;;;;;14.82;2.85;;;;;;;5.30;61.16;103120.09;4934772;28;20038;-75
2023/12/15 11:12:58;;;;;;;20.15;5.03;;;;;;;5.31;60.97;103115.75;4946676;28;20058;-75